sensor_id;sensor_type;location;lat;lon;timestamp;temperature;humidity
4411;DHT22;2218;51.408;7.208;2022-11-20T00:00:17;18.70;27.70
4411;DHT22;2218;51.408;7.208;2022-11-20T00:02:44;18.70;27.70
4411;DHT22;2218;51.408;7.208;2022-11-20T00:05:11;18.70;27.70
4411;DHT22;2218;51.408;7.208;2022-11-20T00:07:40;18.70;27.70
4411;DHT22;2218;51.408;7.208;2022-11-20T00:10:07;18.60;27.70
4411;DHT22;2218;51.408;7.208;2022-11-20T00:12:34;18.60;27.70
4411;DHT22;2218;51.408;7.208;2022-11-20T00:15:01;18.60;27.70
4411;DHT22;2218;51.408;7.208;2022-11-20T00:17:28;18.60;27.70
4411;DHT22;2218;51.408;7.208;2022-11-20T00:19:55;18.60;27.70
4411;DHT22;2218;51.408;7.208;2022-11-20T00:22:22;18.60;27.70
4411;DHT22;2218;51.408;7.208;2022-11-20T00:24:50;18.60;27.70
4411;DHT22;2218;51.408;7.208;2022-11-20T00:27:17;18.60;27.70
4411;DHT22;2218;51.408;7.208;2022-11-20T00:29:44;18.60;27.70
4411;DHT22;2218;51.408;7.208;2022-11-20T00:32:11;18.60;27.70
4411;DHT22;2218;51.408;7.208;2022-11-20T00:34:38;18.50;27.70
4411;DHT22;2218;51.408;7.208;2022-11-20T00:37:05;18.50;27.70
4411;DHT22;2218;51.408;7.208;2022-11-20T00:39:32;18.50;27.70
4411;DHT22;2218;51.408;7.208;2022-11-20T00:42:00;18.50;27.70
4411;DHT22;2218;51.408;7.208;2022-11-20T00:44:27;18.50;27.70
4411;DHT22;2218;51.408;7.208;2022-11-20T00:46:54;18.50;27.80
4411;DHT22;2218;51.408;7.208;2022-11-20T00:49:21;18.50;27.80
4411;DHT22;2218;51.408;7.208;2022-11-20T00:51:48;18.50;27.70
4411;DHT22;2218;51.408;7.208;2022-11-20T00:54:15;18.50;27.80
4411;DHT22;2218;51.408;7.208;2022-11-20T00:56:42;18.50;27.80
4411;DHT22;2218;51.408;7.208;2022-11-20T00:59:10;18.50;27.80
4411;DHT22;2218;51.408;7.208;2022-11-20T01:01:37;18.50;27.80
4411;DHT22;2218;51.408;7.208;2022-11-20T01:04:05;18.50;27.90
4411;DHT22;2218;51.408;7.208;2022-11-20T01:06:33;18.50;27.80
4411;DHT22;2218;51.408;7.208;2022-11-20T01:09:04;18.50;27.90
4411;DHT22;2218;51.408;7.208;2022-11-20T01:11:35;18.40;27.80
4411;DHT22;2218;51.408;7.208;2022-11-20T01:14:06;18.40;27.80
4411;DHT22;2218;51.408;7.208;2022-11-20T01:16:39;18.40;27.80
4411;DHT22;2218;51.408;7.208;2022-11-20T01:19:10;18.40;27.90
4411;DHT22;2218;51.408;7.208;2022-11-20T01:21:40;18.40;27.90
4411;DHT22;2218;51.408;7.208;2022-11-20T01:24:12;18.40;27.90
4411;DHT22;2218;51.408;7.208;2022-11-20T01:26:42;18.40;27.90
4411;DHT22;2218;51.408;7.208;2022-11-20T01:29:13;18.40;27.90
4411;DHT22;2218;51.408;7.208;2022-11-20T01:31:43;18.40;27.90
4411;DHT22;2218;51.408;7.208;2022-11-20T01:34:12;18.40;27.90
4411;DHT22;2218;51.408;7.208;2022-11-20T01:36:41;18.40;28.00
4411;DHT22;2218;51.408;7.208;2022-11-20T01:39:11;18.40;27.90
4411;DHT22;2218;51.408;7.208;2022-11-20T01:41:41;18.40;28.00
4411;DHT22;2218;51.408;7.208;2022-11-20T01:44:49;18.40;27.90
4411;DHT22;2218;51.408;7.208;2022-11-20T01:47:23;18.40;27.90
4411;DHT22;2218;51.408;7.208;2022-11-20T01:49:59;18.50;27.90
4411;DHT22;2218;51.408;7.208;2022-11-20T01:52:34;18.50;27.80
4411;DHT22;2218;51.408;7.208;2022-11-20T01:55:07;18.60;27.80
4411;DHT22;2218;51.408;7.208;2022-11-20T01:57:37;18.60;27.80
4411;DHT22;2218;51.408;7.208;2022-11-20T02:00:09;18.70;27.70
4411;DHT22;2218;51.408;7.208;2022-11-20T02:02:45;18.70;27.60
4411;DHT22;2218;51.408;7.208;2022-11-20T02:05:20;18.80;27.70
4411;DHT22;2218;51.408;7.208;2022-11-20T02:07:50;18.80;27.60
4411;DHT22;2218;51.408;7.208;2022-11-20T02:10:20;18.80;27.60
4411;DHT22;2218;51.408;7.208;2022-11-20T02:12:48;18.90;27.70
4411;DHT22;2218;51.408;7.208;2022-11-20T02:15:33;18.90;27.60
4411;DHT22;2218;51.408;7.208;2022-11-20T02:18:01;18.90;27.60
4411;DHT22;2218;51.408;7.208;2022-11-20T02:20:28;18.90;27.60
4411;DHT22;2218;51.408;7.208;2022-11-20T02:22:58;19.00;27.70
4411;DHT22;2218;51.408;7.208;2022-11-20T02:25:33;18.90;27.60
4411;DHT22;2218;51.408;7.208;2022-11-20T02:28:03;18.90;27.70
4411;DHT22;2218;51.408;7.208;2022-11-20T02:30:31;18.90;27.70
4411;DHT22;2218;51.408;7.208;2022-11-20T02:32:58;18.90;27.80
4411;DHT22;2218;51.408;7.208;2022-11-20T02:35:44;18.90;27.80
4411;DHT22;2218;51.408;7.208;2022-11-20T02:38:13;18.90;27.80
4411;DHT22;2218;51.408;7.208;2022-11-20T02:40:42;18.90;27.80
4411;DHT22;2218;51.408;7.208;2022-11-20T02:43:09;18.90;27.80
4411;DHT22;2218;51.408;7.208;2022-11-20T02:45:37;18.90;27.80
4411;DHT22;2218;51.408;7.208;2022-11-20T02:48:06;18.90;27.80
4411;DHT22;2218;51.408;7.208;2022-11-20T02:50:35;18.90;27.80
4411;DHT22;2218;51.408;7.208;2022-11-20T02:53:03;18.90;27.80
4411;DHT22;2218;51.408;7.208;2022-11-20T02:55:30;18.90;27.80
4411;DHT22;2218;51.408;7.208;2022-11-20T02:57:58;18.90;27.80
4411;DHT22;2218;51.408;7.208;2022-11-20T03:00:25;18.90;27.90
4411;DHT22;2218;51.408;7.208;2022-11-20T03:02:52;18.90;27.90
4411;DHT22;2218;51.408;7.208;2022-11-20T03:05:19;18.90;27.80
4411;DHT22;2218;51.408;7.208;2022-11-20T03:07:46;18.90;27.80
4411;DHT22;2218;51.408;7.208;2022-11-20T03:10:13;18.90;27.80
4411;DHT22;2218;51.408;7.208;2022-11-20T03:12:40;18.90;27.90
4411;DHT22;2218;51.408;7.208;2022-11-20T03:15:09;18.90;27.90
4411;DHT22;2218;51.408;7.208;2022-11-20T03:17:36;18.90;27.90
4411;DHT22;2218;51.408;7.208;2022-11-20T03:20:04;18.90;27.90
4411;DHT22;2218;51.408;7.208;2022-11-20T03:22:32;18.90;27.90
4411;DHT22;2218;51.408;7.208;2022-11-20T03:24:59;18.90;27.90
4411;DHT22;2218;51.408;7.208;2022-11-20T03:27:26;18.90;27.90
4411;DHT22;2218;51.408;7.208;2022-11-20T03:29:52;18.90;28.00
4411;DHT22;2218;51.408;7.208;2022-11-20T03:32:21;18.90;28.00
4411;DHT22;2218;51.408;7.208;2022-11-20T03:34:48;18.90;28.00
4411;DHT22;2218;51.408;7.208;2022-11-20T03:37:14;18.90;28.00
4411;DHT22;2218;51.408;7.208;2022-11-20T03:39:41;18.90;28.00
4411;DHT22;2218;51.408;7.208;2022-11-20T03:42:08;18.90;28.00
4411;DHT22;2218;51.408;7.208;2022-11-20T03:44:56;18.90;28.00
4411;DHT22;2218;51.408;7.208;2022-11-20T03:47:24;18.90;28.10
4411;DHT22;2218;51.408;7.208;2022-11-20T03:49:51;18.90;28.10
4411;DHT22;2218;51.408;7.208;2022-11-20T03:52:18;18.90;28.10
4411;DHT22;2218;51.408;7.208;2022-11-20T03:54:45;18.90;28.10
4411;DHT22;2218;51.408;7.208;2022-11-20T03:57:11;18.90;28.10
4411;DHT22;2218;51.408;7.208;2022-11-20T03:59:38;18.90;28.10
4411;DHT22;2218;51.408;7.208;2022-11-20T04:02:05;18.90;28.10
4411;DHT22;2218;51.408;7.208;2022-11-20T04:04:33;18.90;28.10
4411;DHT22;2218;51.408;7.208;2022-11-20T04:07:00;18.90;28.10
4411;DHT22;2218;51.408;7.208;2022-11-20T04:09:27;18.90;28.20
4411;DHT22;2218;51.408;7.208;2022-11-20T04:11:54;18.90;28.10
4411;DHT22;2218;51.408;7.208;2022-11-20T04:14:21;18.90;28.10
4411;DHT22;2218;51.408;7.208;2022-11-20T04:16:48;18.90;28.10
4411;DHT22;2218;51.408;7.208;2022-11-20T04:19:16;18.90;28.10
4411;DHT22;2218;51.408;7.208;2022-11-20T04:21:44;18.90;28.10
4411;DHT22;2218;51.408;7.208;2022-11-20T04:24:11;18.90;28.20
4411;DHT22;2218;51.408;7.208;2022-11-20T04:26:39;18.90;28.10
4411;DHT22;2218;51.408;7.208;2022-11-20T04:29:10;18.90;28.10
4411;DHT22;2218;51.408;7.208;2022-11-20T04:31:38;19.00;28.20
4411;DHT22;2218;51.408;7.208;2022-11-20T04:34:06;19.00;28.20
4411;DHT22;2218;51.408;7.208;2022-11-20T04:36:34;18.90;28.20
4411;DHT22;2218;51.408;7.208;2022-11-20T04:39:04;19.00;28.20
4411;DHT22;2218;51.408;7.208;2022-11-20T04:41:34;19.00;28.20
4411;DHT22;2218;51.408;7.208;2022-11-20T04:44:04;19.00;28.20
4411;DHT22;2218;51.408;7.208;2022-11-20T04:46:34;19.00;28.20
4411;DHT22;2218;51.408;7.208;2022-11-20T04:49:02;19.00;28.20
4411;DHT22;2218;51.408;7.208;2022-11-20T04:51:30;19.00;28.20
4411;DHT22;2218;51.408;7.208;2022-11-20T04:53:58;19.00;28.30
4411;DHT22;2218;51.408;7.208;2022-11-20T04:56:26;19.00;28.40
4411;DHT22;2218;51.408;7.208;2022-11-20T04:58:53;19.00;28.40
4411;DHT22;2218;51.408;7.208;2022-11-20T05:01:22;19.00;28.40
4411;DHT22;2218;51.408;7.208;2022-11-20T05:03:50;19.00;28.50
4411;DHT22;2218;51.408;7.208;2022-11-20T05:06:19;19.00;28.40
4411;DHT22;2218;51.408;7.208;2022-11-20T05:08:47;19.00;28.40
4411;DHT22;2218;51.408;7.208;2022-11-20T05:11:16;19.00;28.50
4411;DHT22;2218;51.408;7.208;2022-11-20T05:13:46;19.00;28.60
4411;DHT22;2218;51.408;7.208;2022-11-20T05:16:14;19.00;28.50
4411;DHT22;2218;51.408;7.208;2022-11-20T05:18:42;19.00;28.60
4411;DHT22;2218;51.408;7.208;2022-11-20T05:21:11;19.00;28.60
4411;DHT22;2218;51.408;7.208;2022-11-20T05:23:39;19.00;28.60
4411;DHT22;2218;51.408;7.208;2022-11-20T05:26:11;19.00;28.60
4411;DHT22;2218;51.408;7.208;2022-11-20T05:28:39;19.00;28.60
4411;DHT22;2218;51.408;7.208;2022-11-20T05:31:09;19.00;28.60
4411;DHT22;2218;51.408;7.208;2022-11-20T05:33:40;19.00;28.60
4411;DHT22;2218;51.408;7.208;2022-11-20T05:36:08;19.00;28.70
4411;DHT22;2218;51.408;7.208;2022-11-20T05:38:35;19.00;28.60
4411;DHT22;2218;51.408;7.208;2022-11-20T05:41:06;19.00;28.70
4411;DHT22;2218;51.408;7.208;2022-11-20T05:43:34;19.00;28.60
4411;DHT22;2218;51.408;7.208;2022-11-20T05:46:02;19.00;28.70
4411;DHT22;2218;51.408;7.208;2022-11-20T05:48:31;19.00;28.70
4411;DHT22;2218;51.408;7.208;2022-11-20T05:50:59;19.00;28.70
4411;DHT22;2218;51.408;7.208;2022-11-20T05:53:28;19.00;28.70
4411;DHT22;2218;51.408;7.208;2022-11-20T05:55:58;19.00;28.80
4411;DHT22;2218;51.408;7.208;2022-11-20T05:58:26;19.00;28.70
4411;DHT22;2218;51.408;7.208;2022-11-20T06:00:54;19.00;28.80
4411;DHT22;2218;51.408;7.208;2022-11-20T06:03:30;19.00;28.70
4411;DHT22;2218;51.408;7.208;2022-11-20T06:05:58;19.00;28.70
4411;DHT22;2218;51.408;7.208;2022-11-20T06:08:25;19.00;28.70
4411;DHT22;2218;51.408;7.208;2022-11-20T06:10:52;19.00;28.70
4411;DHT22;2218;51.408;7.208;2022-11-20T06:13:19;19.00;28.70
4411;DHT22;2218;51.408;7.208;2022-11-20T06:15:48;19.00;28.70
4411;DHT22;2218;51.408;7.208;2022-11-20T06:18:16;19.00;28.70
4411;DHT22;2218;51.408;7.208;2022-11-20T06:20:45;19.00;28.80
4411;DHT22;2218;51.408;7.208;2022-11-20T06:23:13;19.00;28.80
4411;DHT22;2218;51.408;7.208;2022-11-20T06:25:40;19.00;28.80
4411;DHT22;2218;51.408;7.208;2022-11-20T06:28:08;19.00;28.80
4411;DHT22;2218;51.408;7.208;2022-11-20T06:30:36;19.00;28.80
4411;DHT22;2218;51.408;7.208;2022-11-20T06:33:03;19.00;28.80
4411;DHT22;2218;51.408;7.208;2022-11-20T06:35:29;19.00;28.80
4411;DHT22;2218;51.408;7.208;2022-11-20T06:37:58;19.00;28.80
4411;DHT22;2218;51.408;7.208;2022-11-20T06:40:24;19.00;28.80
4411;DHT22;2218;51.408;7.208;2022-11-20T06:42:53;19.00;28.80
4411;DHT22;2218;51.408;7.208;2022-11-20T06:45:21;19.00;28.80
4411;DHT22;2218;51.408;7.208;2022-11-20T06:47:48;19.00;28.80
4411;DHT22;2218;51.408;7.208;2022-11-20T06:50:15;19.00;28.80
4411;DHT22;2218;51.408;7.208;2022-11-20T06:52:42;19.00;28.80
4411;DHT22;2218;51.408;7.208;2022-11-20T06:55:10;19.00;28.80
4411;DHT22;2218;51.408;7.208;2022-11-20T06:57:37;19.00;28.80
4411;DHT22;2218;51.408;7.208;2022-11-20T07:00:05;19.00;28.90
4411;DHT22;2218;51.408;7.208;2022-11-20T07:02:32;19.00;28.80
4411;DHT22;2218;51.408;7.208;2022-11-20T07:04:59;19.00;28.90
4411;DHT22;2218;51.408;7.208;2022-11-20T07:07:26;19.00;28.80
4411;DHT22;2218;51.408;7.208;2022-11-20T07:09:53;19.00;28.90
4411;DHT22;2218;51.408;7.208;2022-11-20T07:12:21;19.00;28.80
4411;DHT22;2218;51.408;7.208;2022-11-20T07:14:48;19.00;28.90
4411;DHT22;2218;51.408;7.208;2022-11-20T07:17:15;19.00;28.80
4411;DHT22;2218;51.408;7.208;2022-11-20T07:19:42;19.00;28.80
4411;DHT22;2218;51.408;7.208;2022-11-20T07:22:09;19.00;28.80
4411;DHT22;2218;51.408;7.208;2022-11-20T07:24:36;19.00;28.80
4411;DHT22;2218;51.408;7.208;2022-11-20T07:27:02;19.10;28.80
4411;DHT22;2218;51.408;7.208;2022-11-20T07:29:32;19.10;28.80
4411;DHT22;2218;51.408;7.208;2022-11-20T07:31:59;19.00;28.80
4411;DHT22;2218;51.408;7.208;2022-11-20T07:34:25;19.10;28.90
4411;DHT22;2218;51.408;7.208;2022-11-20T07:36:52;19.10;28.80
4411;DHT22;2218;51.408;7.208;2022-11-20T07:39:19;19.10;28.90
4411;DHT22;2218;51.408;7.208;2022-11-20T07:41:46;19.10;28.90
4411;DHT22;2218;51.408;7.208;2022-11-20T07:44:13;19.10;28.90
4411;DHT22;2218;51.408;7.208;2022-11-20T07:46:41;19.10;28.90
4411;DHT22;2218;51.408;7.208;2022-11-20T07:49:08;19.10;28.90
4411;DHT22;2218;51.408;7.208;2022-11-20T07:51:35;19.10;28.90
4411;DHT22;2218;51.408;7.208;2022-11-20T07:54:02;19.10;28.90
4411;DHT22;2218;51.408;7.208;2022-11-20T07:56:29;19.10;28.90
4411;DHT22;2218;51.408;7.208;2022-11-20T07:58:55;19.10;28.90
4411;DHT22;2218;51.408;7.208;2022-11-20T08:01:22;19.10;28.90
4411;DHT22;2218;51.408;7.208;2022-11-20T08:03:51;19.10;28.90
4411;DHT22;2218;51.408;7.208;2022-11-20T08:06:17;19.10;28.90
4411;DHT22;2218;51.408;7.208;2022-11-20T08:08:45;19.10;28.80
4411;DHT22;2218;51.408;7.208;2022-11-20T08:11:12;19.10;28.90
4411;DHT22;2218;51.408;7.208;2022-11-20T08:13:57;19.10;28.90
4411;DHT22;2218;51.408;7.208;2022-11-20T08:16:39;19.10;28.90
4411;DHT22;2218;51.408;7.208;2022-11-20T08:19:07;19.10;28.80
4411;DHT22;2218;51.408;7.208;2022-11-20T08:21:34;19.10;28.90
4411;DHT22;2218;51.408;7.208;2022-11-20T08:24:02;19.10;28.90
4411;DHT22;2218;51.408;7.208;2022-11-20T08:26:29;19.10;29.40
4411;DHT22;2218;51.408;7.208;2022-11-20T08:28:56;19.10;28.90
4411;DHT22;2218;51.408;7.208;2022-11-20T08:31:25;19.10;28.90
4411;DHT22;2218;51.408;7.208;2022-11-20T08:33:53;19.10;28.90
4411;DHT22;2218;51.408;7.208;2022-11-20T08:36:22;19.10;28.90
4411;DHT22;2218;51.408;7.208;2022-11-20T08:38:51;19.10;28.90
4411;DHT22;2218;51.408;7.208;2022-11-20T08:41:19;19.10;28.90
4411;DHT22;2218;51.408;7.208;2022-11-20T08:43:50;19.10;28.90
4411;DHT22;2218;51.408;7.208;2022-11-20T08:46:19;19.10;28.90
4411;DHT22;2218;51.408;7.208;2022-11-20T08:48:46;19.10;29.00
4411;DHT22;2218;51.408;7.208;2022-11-20T08:51:14;19.10;29.00
4411;DHT22;2218;51.408;7.208;2022-11-20T08:53:42;19.10;28.90
4411;DHT22;2218;51.408;7.208;2022-11-20T08:56:09;19.10;28.90
4411;DHT22;2218;51.408;7.208;2022-11-20T08:58:37;19.10;29.00
4411;DHT22;2218;51.408;7.208;2022-11-20T09:01:04;19.10;29.00
4411;DHT22;2218;51.408;7.208;2022-11-20T09:03:31;19.10;28.90
4411;DHT22;2218;51.408;7.208;2022-11-20T09:05:59;19.10;29.00
4411;DHT22;2218;51.408;7.208;2022-11-20T09:08:27;19.10;28.90
4411;DHT22;2218;51.408;7.208;2022-11-20T09:10:57;19.10;29.00
4411;DHT22;2218;51.408;7.208;2022-11-20T09:13:27;19.10;29.00
4411;DHT22;2218;51.408;7.208;2022-11-20T09:15:55;19.20;29.00
4411;DHT22;2218;51.408;7.208;2022-11-20T09:18:23;19.10;29.00
4411;DHT22;2218;51.408;7.208;2022-11-20T09:20:50;19.10;29.00
4411;DHT22;2218;51.408;7.208;2022-11-20T09:23:17;19.10;29.00
4411;DHT22;2218;51.408;7.208;2022-11-20T09:25:44;19.20;29.10
4411;DHT22;2218;51.408;7.208;2022-11-20T09:28:12;19.10;28.90
4411;DHT22;2218;51.408;7.208;2022-11-20T09:30:39;19.10;29.00
4411;DHT22;2218;51.408;7.208;2022-11-20T09:33:06;19.10;28.90
4411;DHT22;2218;51.408;7.208;2022-11-20T09:35:33;19.20;28.90
4411;DHT22;2218;51.408;7.208;2022-11-20T09:38:05;19.10;29.00
4411;DHT22;2218;51.408;7.208;2022-11-20T09:40:34;19.10;29.00
4411;DHT22;2218;51.408;7.208;2022-11-20T09:43:07;19.10;29.00
4411;DHT22;2218;51.408;7.208;2022-11-20T09:45:50;19.10;29.00
4411;DHT22;2218;51.408;7.208;2022-11-20T09:51:48;19.20;29.10
4411;DHT22;2218;51.408;7.208;2022-11-20T09:54:27;19.10;29.00
4411;DHT22;2218;51.408;7.208;2022-11-20T09:57:00;19.20;29.10
4411;DHT22;2218;51.408;7.208;2022-11-20T09:59:34;19.20;29.10
4411;DHT22;2218;51.408;7.208;2022-11-20T10:02:28;19.20;29.10
4411;DHT22;2218;51.408;7.208;2022-11-20T10:05:03;19.20;29.10
4411;DHT22;2218;51.408;7.208;2022-11-20T10:07:39;19.20;29.10
4411;DHT22;2218;51.408;7.208;2022-11-20T10:10:15;19.20;29.10
4411;DHT22;2218;51.408;7.208;2022-11-20T10:13:00;19.20;29.10
4411;DHT22;2218;51.408;7.208;2022-11-20T10:15:45;19.20;29.10
4411;DHT22;2218;51.408;7.208;2022-11-20T10:18:36;19.20;29.10
4411;DHT22;2218;51.408;7.208;2022-11-20T10:21:18;19.20;29.10
4411;DHT22;2218;51.408;7.208;2022-11-20T10:24:07;19.20;29.10
4411;DHT22;2218;51.408;7.208;2022-11-20T10:26:59;19.20;29.10
4411;DHT22;2218;51.408;7.208;2022-11-20T10:29:43;19.20;29.10
4411;DHT22;2218;51.408;7.208;2022-11-20T10:32:16;19.20;29.10
4411;DHT22;2218;51.408;7.208;2022-11-20T10:34:51;19.20;29.10
4411;DHT22;2218;51.408;7.208;2022-11-20T10:37:26;19.20;29.10
4411;DHT22;2218;51.408;7.208;2022-11-20T10:39:58;19.20;29.10
4411;DHT22;2218;51.408;7.208;2022-11-20T10:42:36;19.20;29.10
4411;DHT22;2218;51.408;7.208;2022-11-20T10:45:15;19.20;29.10
4411;DHT22;2218;51.408;7.208;2022-11-20T10:48:12;19.20;29.10
4411;DHT22;2218;51.408;7.208;2022-11-20T10:53:56;19.20;29.10
4411;DHT22;2218;51.408;7.208;2022-11-20T10:56:34;19.20;29.20
4411;DHT22;2218;51.408;7.208;2022-11-20T10:59:28;19.20;29.10
4411;DHT22;2218;51.408;7.208;2022-11-20T11:02:16;19.20;29.10
4411;DHT22;2218;51.408;7.208;2022-11-20T11:04:46;19.20;29.20
4411;DHT22;2218;51.408;7.208;2022-11-20T11:07:19;19.20;29.10
4411;DHT22;2218;51.408;7.208;2022-11-20T11:09:52;19.20;29.20
4411;DHT22;2218;51.408;7.208;2022-11-20T11:12:21;19.20;29.10
4411;DHT22;2218;51.408;7.208;2022-11-20T11:14:52;19.20;29.10
4411;DHT22;2218;51.408;7.208;2022-11-20T11:17:26;19.20;29.10
4411;DHT22;2218;51.408;7.208;2022-11-20T11:20:06;19.20;29.10
4411;DHT22;2218;51.408;7.208;2022-11-20T11:22:45;19.20;29.10
4411;DHT22;2218;51.408;7.208;2022-11-20T11:25:27;19.20;29.10
4411;DHT22;2218;51.408;7.208;2022-11-20T11:27:58;19.20;29.20
4411;DHT22;2218;51.408;7.208;2022-11-20T11:30:27;19.20;29.10
4411;DHT22;2218;51.408;7.208;2022-11-20T11:33:05;19.20;29.10
4411;DHT22;2218;51.408;7.208;2022-11-20T11:35:33;19.20;29.10
4411;DHT22;2218;51.408;7.208;2022-11-20T11:38:10;19.20;29.20
4411;DHT22;2218;51.408;7.208;2022-11-20T11:40:40;19.20;29.10
4411;DHT22;2218;51.408;7.208;2022-11-20T11:43:19;19.20;29.10
4411;DHT22;2218;51.408;7.208;2022-11-20T11:46:20;19.20;29.00
4411;DHT22;2218;51.408;7.208;2022-11-20T11:49:00;19.20;29.10
4411;DHT22;2218;51.408;7.208;2022-11-20T11:51:47;19.20;29.20
4411;DHT22;2218;51.408;7.208;2022-11-20T11:54:30;19.20;29.10
4411;DHT22;2218;51.408;7.208;2022-11-20T11:57:07;19.20;29.10
4411;DHT22;2218;51.408;7.208;2022-11-20T11:59:49;19.20;29.20
4411;DHT22;2218;51.408;7.208;2022-11-20T12:02:32;19.20;29.20
4411;DHT22;2218;51.408;7.208;2022-11-20T12:05:13;19.20;29.10
4411;DHT22;2218;51.408;7.208;2022-11-20T12:07:47;19.20;29.10
4411;DHT22;2218;51.408;7.208;2022-11-20T12:10:21;19.20;29.10
4411;DHT22;2218;51.408;7.208;2022-11-20T12:12:53;19.20;29.00
4411;DHT22;2218;51.408;7.208;2022-11-20T12:15:30;19.20;29.10
4411;DHT22;2218;51.408;7.208;2022-11-20T12:17:58;19.20;29.10
4411;DHT22;2218;51.408;7.208;2022-11-20T12:20:29;19.20;29.10
4411;DHT22;2218;51.408;7.208;2022-11-20T12:23:09;19.20;29.10
4411;DHT22;2218;51.408;7.208;2022-11-20T12:25:48;19.20;29.20
4411;DHT22;2218;51.408;7.208;2022-11-20T12:28:32;19.20;29.10
4411;DHT22;2218;51.408;7.208;2022-11-20T12:31:31;19.20;29.20
4411;DHT22;2218;51.408;7.208;2022-11-20T12:34:24;19.20;29.10
4411;DHT22;2218;51.408;7.208;2022-11-20T12:37:09;19.20;29.10
4411;DHT22;2218;51.408;7.208;2022-11-20T12:39:48;19.20;29.10
4411;DHT22;2218;51.408;7.208;2022-11-20T12:42:42;19.20;29.10
4411;DHT22;2218;51.408;7.208;2022-11-20T12:46:00;19.20;29.20
4411;DHT22;2218;51.408;7.208;2022-11-20T12:49:02;19.20;29.20
4411;DHT22;2218;51.408;7.208;2022-11-20T12:51:57;19.20;29.20
4411;DHT22;2218;51.408;7.208;2022-11-20T12:54:49;19.20;29.10
4411;DHT22;2218;51.408;7.208;2022-11-20T12:57:31;19.20;29.20
4411;DHT22;2218;51.408;7.208;2022-11-20T13:00:14;19.20;29.20
4411;DHT22;2218;51.408;7.208;2022-11-20T13:03:06;19.20;29.10
4411;DHT22;2218;51.408;7.208;2022-11-20T13:05:52;19.20;29.20
4411;DHT22;2218;51.408;7.208;2022-11-20T13:08:25;19.20;29.10
4411;DHT22;2218;51.408;7.208;2022-11-20T13:11:01;19.20;29.20
4411;DHT22;2218;51.408;7.208;2022-11-20T13:13:42;19.20;29.10
4411;DHT22;2218;51.408;7.208;2022-11-20T13:16:17;19.20;29.20
4411;DHT22;2218;51.408;7.208;2022-11-20T13:18:52;19.20;29.20
4411;DHT22;2218;51.408;7.208;2022-11-20T13:21:21;19.20;29.20
4411;DHT22;2218;51.408;7.208;2022-11-20T13:24:04;19.20;29.20
4411;DHT22;2218;51.408;7.208;2022-11-20T13:26:32;19.20;29.20
4411;DHT22;2218;51.408;7.208;2022-11-20T13:29:02;19.20;29.10
4411;DHT22;2218;51.408;7.208;2022-11-20T13:31:44;19.20;29.20
4411;DHT22;2218;51.408;7.208;2022-11-20T13:34:22;19.20;29.20
4411;DHT22;2218;51.408;7.208;2022-11-20T13:36:53;19.20;29.20
4411;DHT22;2218;51.408;7.208;2022-11-20T13:39:24;19.20;29.20
4411;DHT22;2218;51.408;7.208;2022-11-20T13:41:55;19.20;29.20
4411;DHT22;2218;51.408;7.208;2022-11-20T13:44:27;19.20;29.20
4411;DHT22;2218;51.408;7.208;2022-11-20T13:47:01;19.10;29.10
4411;DHT22;2218;51.408;7.208;2022-11-20T13:49:32;19.20;29.20
4411;DHT22;2218;51.408;7.208;2022-11-20T13:52:20;19.10;29.20
4411;DHT22;2218;51.408;7.208;2022-11-20T13:55:16;19.20;29.30
4411;DHT22;2218;51.408;7.208;2022-11-20T13:58:06;19.10;29.20
4411;DHT22;2218;51.408;7.208;2022-11-20T14:00:51;19.20;29.20
4411;DHT22;2218;51.408;7.208;2022-11-20T14:03:25;19.10;29.10
4411;DHT22;2218;51.408;7.208;2022-11-20T14:05:59;19.10;29.20
4411;DHT22;2218;51.408;7.208;2022-11-20T14:08:33;19.10;29.20
4411;DHT22;2218;51.408;7.208;2022-11-20T14:11:12;19.10;29.20
4411;DHT22;2218;51.408;7.208;2022-11-20T14:13:56;19.20;29.20
4411;DHT22;2218;51.408;7.208;2022-11-20T14:16:26;19.10;29.20
4411;DHT22;2218;51.408;7.208;2022-11-20T14:19:08;19.10;29.60
4411;DHT22;2218;51.408;7.208;2022-11-20T14:21:52;19.10;29.20
4411;DHT22;2218;51.408;7.208;2022-11-20T14:24:21;19.10;29.20
4411;DHT22;2218;51.408;7.208;2022-11-20T14:26:50;19.10;29.30
4411;DHT22;2218;51.408;7.208;2022-11-20T14:29:19;19.10;29.30
4411;DHT22;2218;51.408;7.208;2022-11-20T14:31:52;19.10;29.20
4411;DHT22;2218;51.408;7.208;2022-11-20T14:34:25;19.10;29.30
4411;DHT22;2218;51.408;7.208;2022-11-20T14:36:57;19.10;29.30
4411;DHT22;2218;51.408;7.208;2022-11-20T14:39:30;19.10;29.30
4411;DHT22;2218;51.408;7.208;2022-11-20T14:42:00;19.10;29.30
4411;DHT22;2218;51.408;7.208;2022-11-20T14:44:30;19.10;29.30
4411;DHT22;2218;51.408;7.208;2022-11-20T14:47:01;19.20;29.30
4411;DHT22;2218;51.408;7.208;2022-11-20T14:49:31;19.10;29.30
4411;DHT22;2218;51.408;7.208;2022-11-20T14:52:00;19.10;29.30
4411;DHT22;2218;51.408;7.208;2022-11-20T14:54:28;19.10;29.40
4411;DHT22;2218;51.408;7.208;2022-11-20T14:56:57;19.10;29.30
4411;DHT22;2218;51.408;7.208;2022-11-20T14:59:26;19.10;29.40
4411;DHT22;2218;51.408;7.208;2022-11-20T15:01:55;19.10;29.40
4411;DHT22;2218;51.408;7.208;2022-11-20T15:04:23;19.10;29.40
4411;DHT22;2218;51.408;7.208;2022-11-20T15:06:53;19.10;29.40
4411;DHT22;2218;51.408;7.208;2022-11-20T15:09:22;19.10;29.40
4411;DHT22;2218;51.408;7.208;2022-11-20T15:11:54;19.10;29.50
4411;DHT22;2218;51.408;7.208;2022-11-20T15:14:24;19.10;29.50
4411;DHT22;2218;51.408;7.208;2022-11-20T15:16:53;19.10;29.50
4411;DHT22;2218;51.408;7.208;2022-11-20T15:19:22;19.10;29.50
4411;DHT22;2218;51.408;7.208;2022-11-20T15:21:52;19.10;29.60
4411;DHT22;2218;51.408;7.208;2022-11-20T15:24:20;19.10;29.60
4411;DHT22;2218;51.408;7.208;2022-11-20T15:26:46;19.10;29.60
4411;DHT22;2218;51.408;7.208;2022-11-20T15:29:16;19.10;29.60
4411;DHT22;2218;51.408;7.208;2022-11-20T15:31:44;19.10;29.60
4411;DHT22;2218;51.408;7.208;2022-11-20T15:34:13;19.10;29.60
4411;DHT22;2218;51.408;7.208;2022-11-20T15:36:42;19.10;29.70
4411;DHT22;2218;51.408;7.208;2022-11-20T15:39:11;19.10;29.60
4411;DHT22;2218;51.408;7.208;2022-11-20T15:41:38;19.10;29.70
4411;DHT22;2218;51.408;7.208;2022-11-20T15:44:05;19.10;29.70
4411;DHT22;2218;51.408;7.208;2022-11-20T15:46:35;19.10;29.70
4411;DHT22;2218;51.408;7.208;2022-11-20T15:49:06;19.10;29.70
4411;DHT22;2218;51.408;7.208;2022-11-20T15:51:38;19.10;29.80
4411;DHT22;2218;51.408;7.208;2022-11-20T15:54:12;19.10;29.80
4411;DHT22;2218;51.408;7.208;2022-11-20T15:56:41;19.10;29.80
4411;DHT22;2218;51.408;7.208;2022-11-20T15:59:08;19.10;29.90
4411;DHT22;2218;51.408;7.208;2022-11-20T16:01:35;19.10;29.90
4411;DHT22;2218;51.408;7.208;2022-11-20T16:04:02;19.10;29.90
4411;DHT22;2218;51.408;7.208;2022-11-20T16:06:31;19.10;29.90
4411;DHT22;2218;51.408;7.208;2022-11-20T16:08:58;19.10;30.00
4411;DHT22;2218;51.408;7.208;2022-11-20T16:11:26;19.10;30.00
4411;DHT22;2218;51.408;7.208;2022-11-20T16:13:53;19.10;30.00
4411;DHT22;2218;51.408;7.208;2022-11-20T16:16:38;19.10;30.00
4411;DHT22;2218;51.408;7.208;2022-11-20T16:19:10;19.10;30.00
4411;DHT22;2218;51.408;7.208;2022-11-20T16:21:37;19.10;30.00
4411;DHT22;2218;51.408;7.208;2022-11-20T16:24:08;19.10;30.00
4411;DHT22;2218;51.408;7.208;2022-11-20T16:26:38;19.10;30.00
4411;DHT22;2218;51.408;7.208;2022-11-20T16:29:06;19.10;30.00
4411;DHT22;2218;51.408;7.208;2022-11-20T16:31:34;19.10;30.10
4411;DHT22;2218;51.408;7.208;2022-11-20T16:34:03;19.10;30.10
4411;DHT22;2218;51.408;7.208;2022-11-20T16:36:31;19.10;30.20